Time;durP1;ratioP1;P1;durP2;ratioP2;P2;SDS_P1;SDS_P2;PMS_P1;PMS_P2;Temp;Humidity;BMP_temperature;BMP_pressure;BME280_temperature;BME280_humidity;BME280_pressure;Samples;Min_cycle;Max_cycle;Signal;HPM_P1;HPM_P2
2023/08/12 00:00:13;;;;;;;5.70;5.10;;;;;;;25.16;54.19;97734.56;5082001;28;20916;-71
2023/08/12 00:02:41;;;;;;;9.50;4.80;;;;;;;25.09;54.70;97731.19;5088251;28;20240;-72
2023/08/12 00:05:07;;;;;;;12.03;5.73;;;;;;;25.11;54.68;97732.59;5082922;28;20443;-71
2023/08/12 00:07:34;;;;;;;7.77;4.73;;;;;;;25.15;54.51;97724.91;5076977;28;20462;-69
2023/08/12 00:10:04;;;;;;;13.53;5.27;;;;;;;25.14;54.23;97728.63;5080834;28;20424;-71
2023/08/12 00:12:31;;;;;;;8.70;4.93;;;;;;;25.15;54.29;97730.25;5073232;28;20413;-69
2023/08/12 00:14:56;;;;;;;5.47;4.93;;;;;;;25.11;54.42;97727.25;5076163;28;20881;-68
2023/08/12 00:17:22;;;;;;;12.20;4.83;;;;;;;25.06;54.73;97727.09;5077479;28;20512;-67
2023/08/12 00:19:47;;;;;;;6.80;5.33;;;;;;;25.03;54.56;97716.84;5078250;28;20194;-67
2023/08/12 00:22:13;;;;;;;6.43;4.90;;;;;;;24.99;54.73;97716.50;5087692;28;20209;-69
2023/08/12 00:24:39;;;;;;;5.70;5.20;;;;;;;24.98;54.64;97712.19;5080833;28;20209;-70
2023/08/12 00:27:04;;;;;;;7.70;4.90;;;;;;;24.98;54.54;97708.72;5068341;28;20194;-70
2023/08/12 00:29:30;;;;;;;5.90;4.67;;;;;;;25.00;54.87;97707.41;5076759;28;20431;-71
2023/08/12 00:31:55;;;;;;;5.70;4.77;;;;;;;25.04;54.72;97709.63;5088842;28;20240;-71
2023/08/12 00:34:21;;;;;;;14.30;4.90;;;;;;;25.05;54.84;97709.38;5081097;28;20228;-71
2023/08/12 00:36:46;;;;;;;5.87;5.00;;;;;;;25.07;54.46;97709.16;5077663;28;20202;-71
2023/08/12 00:39:12;;;;;;;6.40;4.97;;;;;;;25.03;54.68;97699.97;5090013;28;20186;-72
2023/08/12 00:41:37;;;;;;;6.20;4.80;;;;;;;25.05;54.79;97697.88;5087496;28;20285;-71
2023/08/12 00:44:03;;;;;;;10.17;5.37;;;;;;;25.09;54.39;97694.47;5086119;28;20351;-72
2023/08/12 00:46:28;;;;;;;5.43;4.93;;;;;;;25.04;54.35;97699.72;5085194;28;20195;-72
2023/08/12 00:48:54;;;;;;;5.90;5.30;;;;;;;24.97;54.78;97694.47;5082873;28;20205;-71
2023/08/12 00:51:20;;;;;;;6.67;4.70;;;;;;;24.97;54.48;97699.84;5089466;28;20885;-72
2023/08/12 00:53:46;;;;;;;6.50;4.80;;;;;;;24.95;54.77;97690.41;5078363;28;20931;-71
2023/08/12 00:56:11;;;;;;;5.20;4.70;;;;;;;24.90;54.75;97691.09;5083573;28;20189;-70
2023/08/12 00:58:37;;;;;;;7.83;5.33;;;;;;;24.89;54.75;97694.81;5082259;28;20207;-69
2023/08/12 01:01:03;;;;;;;6.33;5.03;;;;;;;24.86;54.86;97689.94;5079687;28;20392;-71
2023/08/12 01:03:30;;;;;;;5.43;4.93;;;;;;;24.85;55.30;97688.28;5085754;28;20658;-72
2023/08/12 01:05:55;;;;;;;10.13;5.53;;;;;;;24.80;55.25;97680.97;5083852;28;20565;-71
2023/08/12 01:08:21;;;;;;;8.53;5.70;;;;;;;24.73;55.15;97682.94;5087068;28;20495;-71
2023/08/12 01:10:52;;;;;;;5.90;5.33;;;;;;;24.68;55.71;97686.28;5091823;28;20186;-70
2023/08/12 01:13:30;;;;;;;5.63;5.13;;;;;;;24.73;55.72;97682.13;5076471;28;20238;-71
2023/08/12 01:15:58;;;;;;;5.67;4.77;;;;;;;24.79;55.55;97682.00;5076000;28;20498;-71
2023/08/12 01:18:24;;;;;;;5.33;4.50;;;;;;;24.82;55.38;97675.38;5085322;28;20501;-71
2023/08/12 01:20:49;;;;;;;7.43;4.33;;;;;;;24.82;55.33;97673.50;5082728;28;20556;-71
2023/08/12 01:23:15;;;;;;;4.93;4.53;;;;;;;24.81;55.14;97671.88;5089210;28;20200;-70
2023/08/12 01:25:42;;;;;;;5.50;4.30;;;;;;;24.82;55.18;97672.69;5089575;28;20216;-70
2023/08/12 01:28:07;;;;;;;4.77;4.30;;;;;;;24.79;55.17;97667.81;5084252;28;20189;-70
2023/08/12 01:30:42;;;;;;;5.60;4.80;;;;;;;24.76;55.40;97663.69;5093696;28;20848;-71
2023/08/12 01:33:19;;;;;;;5.47;4.50;;;;;;;24.74;55.42;97654.28;5073804;28;20185;-70
2023/08/12 01:35:54;;;;;;;5.30;4.40;;;;;;;24.66;55.16;97658.91;5078466;28;20447;-71
2023/08/12 01:38:21;;;;;;;5.03;4.47;;;;;;;24.63;55.44;97651.34;5089178;28;20421;-72
2023/08/12 01:40:47;;;;;;;5.00;4.50;;;;;;;24.60;55.41;97645.63;5088139;28;20838;-69
2023/08/12 01:43:12;;;;;;;5.13;4.67;;;;;;;24.56;55.72;97653.31;5078390;28;20420;-71
2023/08/12 01:45:38;;;;;;;6.93;4.83;;;;;;;24.51;56.08;97651.31;5086460;28;20455;-71
2023/08/12 01:48:04;;;;;;;5.87;4.50;;;;;;;24.51;55.81;97645.16;5084118;28;20625;-70
2023/08/12 01:50:30;;;;;;;5.23;4.73;;;;;;;24.52;55.81;97644.09;5091791;28;20426;-70
2023/08/12 01:52:55;;;;;;;5.43;4.87;;;;;;;24.50;56.19;97643.53;5083353;28;20424;-72
2023/08/12 01:55:21;;;;;;;5.40;4.93;;;;;;;24.51;56.08;97645.16;5078967;28;20221;-71
2023/08/12 01:57:46;;;;;;;4.60;4.20;;;;;;;24.53;56.16;97646.53;5087874;28;20565;-72
2023/08/12 02:00:12;;;;;;;4.73;4.33;;;;;;;24.56;55.74;97642.59;5082632;28;20629;-73
2023/08/12 02:02:37;;;;;;;5.07;4.57;;;;;;;24.56;55.88;97647.97;5081671;28;20589;-71
2023/08/12 02:05:03;;;;;;;6.57;4.50;;;;;;;24.56;56.00;97653.31;5075300;28;20567;-70
2023/08/12 02:07:28;;;;;;;10.13;4.97;;;;;;;24.50;55.90;97654.22;5087082;28;20212;-70
2023/08/12 02:09:54;;;;;;;5.57;4.80;;;;;;;24.50;55.74;97654.22;5083071;28;20179;-70
2023/08/12 02:12:19;;;;;;;10.00;4.40;;;;;;;24.49;56.05;97652.59;5087785;28;20304;-70
2023/08/12 02:14:44;;;;;;;5.10;4.60;;;;;;;24.50;55.97;97647.03;5082359;28;20248;-71
2023/08/12 02:17:10;;;;;;;7.27;4.90;;;;;;;24.57;55.97;97649.59;5082605;28;20550;-71
2023/08/12 02:19:35;;;;;;;5.33;4.80;;;;;;;24.59;56.01;97647.47;5084430;28;20196;-70
2023/08/12 02:22:01;;;;;;;4.80;4.27;;;;;;;24.64;55.91;97642.25;5078774;28;20566;-71
2023/08/12 02:24:27;;;;;;;5.40;4.03;;;;;;;24.66;55.52;97642.00;5080622;28;20210;-71
2023/08/12 02:26:52;;;;;;;5.47;4.60;;;;;;;24.69;55.26;97647.78;5079098;28;20453;-69
2023/08/12 02:29:18;;;;;;;6.20;4.93;;;;;;;24.71;55.48;97644.84;5083936;28;20614;-71
2023/08/12 02:31:43;;;;;;;4.70;4.30;;;;;;;24.76;55.50;97636.09;5083791;28;20186;-70
2023/08/12 02:34:09;;;;;;;4.83;4.40;;;;;;;24.77;55.46;97633.19;5072929;28;20237;-70
2023/08/12 02:36:35;;;;;;;19.97;5.00;;;;;;;24.80;55.39;97634.59;5080143;28;20186;-71
2023/08/12 02:39:00;;;;;;;5.80;4.50;;;;;;;24.79;55.04;97624.91;5077135;28;20434;-72
2023/08/12 02:41:26;;;;;;;7.60;4.90;;;;;;;24.80;55.60;97626.56;5087405;28;20675;-71
2023/08/12 02:43:51;;;;;;;5.10;4.57;;;;;;;24.74;55.58;97620.28;5084861;28;20272;-70
2023/08/12 02:46:18;;;;;;;5.93;4.93;;;;;;;24.74;55.40;97622.13;5078881;28;20273;-71
2023/08/12 02:48:43;;;;;;;6.10;4.10;;;;;;;24.74;55.38;97622.13;5084694;28;20188;-70
2023/08/12 02:51:09;;;;;;;5.40;4.73;;;;;;;24.76;55.66;97622.69;5074964;28;20791;-71
2023/08/12 02:53:35;;;;;;;5.23;4.80;;;;;;;24.79;55.33;97619.56;5089981;28;20717;-69
2023/08/12 02:56:00;;;;;;;5.83;4.73;;;;;;;24.82;54.99;97624.47;5087896;28;20566;-71
2023/08/12 02:58:26;;;;;;;5.20;4.73;;;;;;;24.85;55.24;97623.97;5087575;28;20185;-70
2023/08/12 03:00:51;;;;;;;4.13;3.83;;;;;;;24.87;55.17;97627.22;5088642;28;20324;-70
2023/08/12 03:03:17;;;;;;;5.37;4.33;;;;;;;24.88;55.32;97628.88;5082026;28;20272;-71
2023/08/12 03:05:46;;;;;;;4.97;4.20;;;;;;;24.86;55.29;97624.81;5082340;28;20220;-70
2023/08/12 03:08:12;;;;;;;10.23;5.53;;;;;;;24.82;55.17;97619.91;5081674;28;20196;-70
2023/08/12 03:10:38;;;;;;;5.60;5.10;;;;;;;24.79;55.33;97609.66;5081233;28;20510;-69
2023/08/12 03:13:03;;;;;;;7.73;5.93;;;;;;;24.77;55.54;97617.09;5074428;28;20198;-72
2023/08/12 03:15:28;;;;;;;5.63;5.00;;;;;;;24.73;55.72;97610.59;5082991;28;20232;-71
2023/08/12 03:17:54;;;;;;;5.30;4.80;;;;;;;24.73;55.70;97612.44;5075365;28;20930;-71
2023/08/12 03:20:19;;;;;;;8.10;4.97;;;;;;;24.72;55.78;97608.97;5067340;28;20276;-70
2023/08/12 03:22:45;;;;;;;5.00;4.60;;;;;;;24.73;55.68;97615.13;5083659;28;20213;-70
2023/08/12 03:25:10;;;;;;;8.63;5.03;;;;;;;24.71;55.62;97611.84;5077274;28;20205;-70
2023/08/12 03:27:36;;;;;;;9.50;5.50;;;;;;;24.67;55.79;97604.28;5082107;28;20230;-71
2023/08/12 03:30:01;;;;;;;7.00;4.83;;;;;;;24.66;55.69;97605.31;5081883;28;20190;-70
2023/08/12 03:32:27;;;;;;;5.30;4.80;;;;;;;24.57;55.52;97608.59;5082687;28;20188;-70
2023/08/12 03:34:52;;;;;;;9.03;4.70;;;;;;;24.60;55.83;97592.84;5085945;28;20296;-72
2023/08/12 03:37:18;;;;;;;9.40;5.20;;;;;;;24.65;55.85;97598.34;5082506;28;20190;-70
2023/08/12 03:39:44;;;;;;;8.70;5.33;;;;;;;24.62;55.81;97604.16;5076360;28;20239;-70
2023/08/12 03:42:09;;;;;;;5.97;5.47;;;;;;;24.68;55.87;97605.91;5081556;28;20546;-71
2023/08/12 03:44:35;;;;;;;5.67;4.70;;;;;;;24.72;55.83;97597.41;5091396;28;20390;-71
2023/08/12 03:47:00;;;;;;;5.03;4.63;;;;;;;24.75;55.88;97596.94;5083116;28;20193;-71
2023/08/12 03:49:26;;;;;;;4.60;4.20;;;;;;;24.74;55.76;97600.69;5086129;28;20586;-70
2023/08/12 03:51:51;;;;;;;6.53;5.07;;;;;;;24.73;56.13;97605.25;5085960;28;20211;-71
2023/08/12 03:54:17;;;;;;;6.60;4.90;;;;;;;24.73;56.12;97605.25;5088153;28;20642;-71
2023/08/12 03:56:42;;;;;;;4.53;4.23;;;;;;;24.74;56.02;97604.19;5097782;28;20563;-70
2023/08/12 03:59:07;;;;;;;5.53;4.53;;;;;;;24.73;56.34;97601.72;5096973;28;20188;-70
2023/08/12 04:01:33;;;;;;;5.37;4.27;;;;;;;24.75;56.52;97605.00;5091351;28;20288;-70
2023/08/12 04:03:58;;;;;;;5.33;4.10;;;;;;;24.76;56.52;97604.75;5089856;28;20182;-70
2023/08/12 04:06:24;;;;;;;7.67;4.67;;;;;;;24.79;56.34;97606.97;5094842;28;20196;-70
2023/08/12 04:08:49;;;;;;;5.60;4.57;;;;;;;24.82;56.04;97603.81;5090363;28;20794;-70
2023/08/12 04:11:14;;;;;;;5.20;4.70;;;;;;;24.79;55.83;97601.59;5101204;28;20197;-71
2023/08/12 04:13:40;;;;;;;13.23;5.53;;;;;;;24.77;56.45;97602.91;5091231;28;20185;-71
2023/08/12 04:16:06;;;;;;;7.77;5.30;;;;;;;24.75;56.43;97599.63;5090183;28;20211;-70
2023/08/12 04:18:31;;;;;;;4.60;4.10;;;;;;;24.72;56.92;97603.59;5089854;28;20218;-72
2023/08/12 04:20:56;;;;;;;5.83;4.90;;;;;;;24.74;56.80;97604.19;5092548;28;20686;-71
2023/08/12 04:23:22;;;;;;;5.27;4.77;;;;;;;24.76;57.08;97606.63;5090988;28;20182;-70
2023/08/12 04:25:48;;;;;;;5.00;4.53;;;;;;;24.79;57.09;97609.66;5090841;28;20296;-71
2023/08/12 04:28:14;;;;;;;4.73;4.40;;;;;;;24.80;56.37;97622.00;5090311;28;20323;-71
2023/08/12 04:30:44;;;;;;;4.97;4.50;;;;;;;24.82;56.78;97619.91;5086506;28;20661;-70
2023/08/12 04:33:09;;;;;;;5.20;4.70;;;;;;;24.84;56.39;97625.84;5086689;28;20439;-71
2023/08/12 04:35:35;;;;;;;5.20;4.70;;;;;;;24.84;56.56;97627.69;5088299;28;21252;-71
2023/08/12 04:38:00;;;;;;;8.57;5.03;;;;;;;24.76;56.81;97625.38;5095863;28;20275;-70
2023/08/12 04:40:26;;;;;;;7.33;4.90;;;;;;;24.74;56.77;97630.16;5088160;28;20209;-71
2023/08/12 04:42:51;;;;;;;5.77;5.03;;;;;;;24.70;57.28;97632.50;5085007;28;20206;-71
2023/08/12 04:45:17;;;;;;;5.87;5.27;;;;;;;24.63;56.98;97621.88;5088611;28;20575;-72
2023/08/12 04:47:42;;;;;;;6.03;5.13;;;;;;;24.56;57.07;97623.84;5090544;28;20662;-70
2023/08/12 04:50:08;;;;;;;5.83;5.23;;;;;;;24.50;57.43;97604.16;5089148;28;20226;-70
2023/08/12 04:52:33;;;;;;;5.33;4.87;;;;;;;24.49;57.59;97615.09;5093170;27;20186;-72
2023/08/12 04:54:59;;;;;;;6.03;5.33;;;;;;;24.53;57.79;97619.75;5090309;28;20212;-69
2023/08/12 04:57:25;;;;;;;4.70;4.30;;;;;;;24.62;57.81;97614.06;5089566;28;20558;-70
2023/08/12 04:59:50;;;;;;;6.47;4.87;;;;;;;24.68;57.72;97616.63;5090311;28;20190;-70
2023/08/12 05:02:18;;;;;;;5.90;5.00;;;;;;;24.74;57.97;97616.75;5089475;28;20460;-71
2023/08/12 05:04:48;;;;;;;8.80;5.10;;;;;;;24.74;57.79;97622.13;5083620;28;20202;-70
2023/08/12 05:07:14;;;;;;;6.00;5.50;;;;;;;24.69;58.22;97623.66;5087217;28;20792;-70
2023/08/12 05:09:39;;;;;;;8.13;5.33;;;;;;;24.64;58.38;97618.13;5087265;28;20504;-70
2023/08/12 05:12:05;;;;;;;7.07;5.20;;;;;;;24.52;59.18;97620.81;5082647;28;20834;-73
2023/08/12 05:14:30;;;;;;;8.03;4.90;;;;;;;24.42;60.52;97630.47;5087580;28;20212;-70
2023/08/12 05:16:56;;;;;;;7.57;4.93;;;;;;;24.34;60.35;97627.06;5088095;28;20710;-69
2023/08/12 05:19:21;;;;;;;6.70;5.23;;;;;;;24.42;59.97;97625.13;5082872;28;20206;-70
2023/08/12 05:21:46;;;;;;;5.80;5.20;;;;;;;24.48;60.14;97629.53;5083389;28;20232;-70
2023/08/12 05:24:12;;;;;;;5.30;4.80;;;;;;;24.54;59.95;97624.06;5084999;28;20258;-70
2023/08/12 05:26:37;;;;;;;5.80;4.97;;;;;;;24.63;59.94;97613.03;5083534;28;20193;-70
2023/08/12 05:29:03;;;;;;;7.27;4.87;;;;;;;24.71;59.91;97612.69;5086943;28;20202;-71
2023/08/12 05:31:29;;;;;;;5.77;4.87;;;;;;;24.79;59.62;97619.56;5086210;28;20230;-71
2023/08/12 05:33:54;;;;;;;4.87;4.47;;;;;;;24.86;59.44;97630.97;5082895;28;20318;-71
2023/08/12 05:36:20;;;;;;;8.23;5.50;;;;;;;24.86;59.57;97622.13;5086329;28;20190;-71
2023/08/12 05:38:45;;;;;;;8.07;5.47;;;;;;;24.83;59.87;97624.22;5083039;28;20280;-71
2023/08/12 05:41:11;;;;;;;5.27;4.77;;;;;;;24.82;60.04;97629.81;5083833;28;20332;-71
2023/08/12 05:43:36;;;;;;;9.03;5.20;;;;;;;24.79;59.92;97630.28;5090395;28;20202;-71
2023/08/12 05:46:02;;;;;;;6.63;5.33;;;;;;;24.82;60.67;97619.09;5089571;28;20286;-71
2023/08/12 05:48:28;;;;;;;5.63;5.13;;;;;;;24.86;60.27;97625.59;5088211;28;20213;-70
2023/08/12 05:50:53;;;;;;;6.20;5.70;;;;;;;24.86;60.96;97624.81;5088599;28;20197;-69
2023/08/12 05:53:19;;;;;;;5.57;5.07;;;;;;;24.92;60.62;97631.88;5088289;28;20509;-70
2023/08/12 05:55:44;;;;;;;8.70;5.00;;;;;;;24.97;60.71;97632.81;5090448;28;20291;-70
2023/08/12 05:58:10;;;;;;;5.90;5.40;;;;;;;25.04;60.71;97639.94;5089088;28;20276;-70
2023/08/12 06:00:35;;;;;;;8.70;6.03;;;;;;;25.06;60.18;97630.59;5088802;28;20196;-72
2023/08/12 06:03:01;;;;;;;5.37;4.97;;;;;;;25.03;60.77;97630.25;5088747;28;20259;-71
2023/08/12 06:05:26;;;;;;;6.00;5.40;;;;;;;24.99;61.03;97624.56;5089780;28;20465;-72
2023/08/12 06:07:52;;;;;;;5.67;5.00;;;;;;;25.05;60.92;97628.16;5088338;28;20430;-71
2023/08/12 06:10:17;;;;;;;5.87;5.07;;;;;;;25.08;61.02;97623.13;5088803;28;20213;-70
2023/08/12 06:12:43;;;;;;;5.97;5.20;;;;;;;25.14;61.13;97629.41;5085197;28;20179;-71
2023/08/12 06:15:08;;;;;;;5.00;4.60;;;;;;;25.19;60.71;97624.16;5088248;28;20217;-71
2023/08/12 06:17:34;;;;;;;10.00;5.20;;;;;;;25.26;60.69;97622.16;5082684;28;20277;-72
2023/08/12 06:19:59;;;;;;;10.57;6.23;;;;;;;25.26;60.22;97621.34;5093433;28;20652;-70
2023/08/12 06:22:25;;;;;;;9.80;5.60;;;;;;;25.28;60.99;97617.38;5090111;28;20217;-72
2023/08/12 06:24:50;;;;;;;6.67;5.40;;;;;;;25.25;60.56;97617.03;5088696;28;20213;-72
2023/08/12 06:27:16;;;;;;;7.17;6.47;;;;;;;25.23;60.34;97614.59;5093650;28;20321;-70
2023/08/12 06:29:41;;;;;;;9.63;5.70;;;;;;;25.20;60.01;97615.06;5085073;28;20229;-71
2023/08/12 06:32:07;;;;;;;7.57;6.00;;;;;;;25.20;60.59;97614.25;5088022;28;20192;-73
2023/08/12 06:34:32;;;;;;;7.27;6.00;;;;;;;25.14;60.02;97611.44;5079897;28;20682;-72
2023/08/12 06:36:57;;;;;;;6.90;5.83;;;;;;;25.15;59.78;97612.28;5088661;28;20202;-71
2023/08/12 06:39:23;;;;;;;6.80;6.03;;;;;;;25.23;59.22;97614.59;5078916;28;20192;-72
2023/08/12 06:41:49;;;;;;;5.97;5.47;;;;;;;25.30;59.18;97619.81;5087458;28;20233;-70
2023/08/12 06:44:14;;;;;;;6.10;5.40;;;;;;;25.54;59.30;97617.06;5084778;28;20210;-72
2023/08/12 06:46:40;;;;;;;10.40;5.40;;;;;;;25.70;58.97;97610.16;5088233;28;20221;-72
2023/08/12 06:49:06;;;;;;;9.30;6.30;;;;;;;25.94;58.42;97612.72;5088336;28;20190;-74
2023/08/12 06:51:32;;;;;;;6.90;5.40;;;;;;;26.25;57.99;97613.25;5089332;28;20217;-71
2023/08/12 06:53:57;;;;;;;7.07;5.37;;;;;;;26.57;57.32;97618.03;5088306;28;20460;-73
2023/08/12 06:56:23;;;;;;;7.10;5.80;;;;;;;26.74;56.44;97620.69;5090704;28;20706;-71
2023/08/12 06:58:48;;;;;;;7.90;5.27;;;;;;;26.81;55.18;97616.81;5088231;28;20186;-71
2023/08/12 07:01:13;;;;;;;8.73;5.50;;;;;;;26.75;54.30;97607.00;5087896;28;20324;-73
2023/08/12 07:03:39;;;;;;;8.30;5.73;;;;;;;26.67;54.58;97602.06;5086804;28;20303;-72
2023/08/12 07:06:04;;;;;;;5.77;5.23;;;;;;;26.85;54.97;97605.53;5084305;28;20205;-72
2023/08/12 07:08:31;;;;;;;7.70;5.83;;;;;;;26.96;53.61;97607.31;5086965;28;20961;-73
2023/08/12 07:10:56;;;;;;;7.70;5.37;;;;;;;27.15;53.00;97613.22;5083322;28;20722;-73
2023/08/12 07:13:22;;;;;;;7.73;5.63;;;;;;;27.19;52.82;97605.47;5087000;28;20510;-72
2023/08/12 07:15:47;;;;;;;6.80;5.13;;;;;;;27.42;52.67;97605.19;5081573;28;20959;-69
2023/08/12 07:18:12;;;;;;;5.93;5.33;;;;;;;27.69;52.89;97599.03;5079521;28;20253;-74
2023/08/12 07:20:38;;;;;;;8.90;5.40;;;;;;;27.94;52.29;97600.34;5082162;28;20273;-73
2023/08/12 07:23:03;;;;;;;5.83;4.73;;;;;;;28.18;51.85;97600.03;5081309;28;20219;-72
2023/08/12 07:25:29;;;;;;;5.00;4.60;;;;;;;28.39;51.34;97600.19;5082681;28;20201;-72
2023/08/12 07:27:54;;;;;;;5.80;4.70;;;;;;;28.58;51.00;97597.88;5086429;28;20757;-71
2023/08/12 07:30:20;;;;;;;7.00;4.83;;;;;;;28.77;50.75;97596.44;5085941;28;20229;-71
2023/08/12 07:32:45;;;;;;;8.37;4.80;;;;;;;28.99;50.19;97595.44;5078004;28;20228;-71
2023/08/12 07:35:11;;;;;;;7.13;4.70;;;;;;;29.19;49.57;97602.81;5082629;28;20209;-72
2023/08/12 07:37:37;;;;;;;5.50;4.37;;;;;;;29.37;48.62;97598.03;5079262;28;20262;-70
2023/08/12 07:40:03;;;;;;;6.30;4.90;;;;;;;29.57;47.68;97592.72;5089056;28;20471;-72
2023/08/12 07:42:28;;;;;;;7.40;4.47;;;;;;;29.76;47.33;97589.50;5081943;28;20308;-71
2023/08/12 07:44:54;;;;;;;5.07;4.57;;;;;;;29.89;46.65;97594.38;5087293;28;20558;-75
2023/08/12 07:47:19;;;;;;;9.37;4.83;;;;;;;30.05;47.04;97597.13;5079185;28;20190;-72
2023/08/12 07:49:45;;;;;;;5.53;4.30;;;;;;;30.25;46.91;97600.88;5083541;28;20685;-73
2023/08/12 07:52:10;;;;;;;5.90;4.37;;;;;;;30.44;45.88;97593.03;5081067;28;20270;-74
2023/08/12 07:54:36;;;;;;;5.50;4.77;;;;;;;30.64;45.50;97592.22;5079992;28;20264;-70
2023/08/12 07:57:01;;;;;;;4.63;4.23;;;;;;;30.83;44.79;97591.63;5086001;28;20202;-70
2023/08/12 07:59:27;;;;;;;5.00;4.47;;;;;;;30.93;44.19;97600.53;5079377;28;20197;-72
2023/08/12 08:01:52;;;;;;;8.33;4.23;;;;;;;31.07;43.75;97595.34;5093331;28;20247;-71
2023/08/12 08:04:17;;;;;;;4.50;4.10;;;;;;;31.27;43.26;97592.84;5082071;28;20305;-70
2023/08/12 08:06:43;;;;;;;5.63;4.40;;;;;;;31.43;41.87;97599.00;5089451;28;20200;-71
2023/08/12 08:09:09;;;;;;;6.50;4.00;;;;;;;31.64;42.02;97597.78;5086111;28;20243;-74
2023/08/12 08:11:34;;;;;;;4.50;4.10;;;;;;;31.70;41.85;97596.69;5086986;28;20622;-69
2023/08/12 08:14:00;;;;;;;4.73;4.23;;;;;;;31.82;41.71;97593.63;5085684;28;20272;-70
2023/08/12 08:16:25;;;;;;;4.60;4.30;;;;;;;32.01;41.00;97590.25;5090605;28;20221;-71
2023/08/12 08:18:51;;;;;;;4.20;3.80;;;;;;;32.06;40.96;97587.50;5087242;28;20182;-70
2023/08/12 08:21:16;;;;;;;6.87;4.53;;;;;;;31.96;40.92;97585.69;5089350;28;20247;-70
2023/08/12 08:23:42;;;;;;;10.03;4.10;;;;;;;31.88;41.09;97588.19;5086759;28;20284;-72
2023/08/12 08:26:08;;;;;;;6.43;4.20;;;;;;;31.93;41.43;97588.16;5084861;28;20213;-71
2023/08/12 08:28:34;;;;;;;4.30;3.93;;;;;;;32.02;41.20;97575.59;5090505;28;20202;-72
2023/08/12 08:30:59;;;;;;;4.60;3.50;;;;;;;32.15;40.08;97590.38;5090169;28;20442;-70
2023/08/12 08:33:25;;;;;;;7.97;3.20;;;;;;;32.17;38.54;97582.78;5087997;28;20185;-72
2023/08/12 08:35:51;;;;;;;5.20;3.40;;;;;;;32.34;38.93;97587.81;5086954;28;20296;-72
2023/08/12 08:38:17;;;;;;;4.10;3.50;;;;;;;32.62;38.04;97585.38;5089903;28;20514;-72
2023/08/12 08:40:42;;;;;;;4.73;3.40;;;;;;;32.72;38.04;97581.75;5086441;28;20194;-68
2023/08/12 08:43:08;;;;;;;3.23;2.93;;;;;;;32.80;37.37;97591.16;5094636;28;20218;-69
2023/08/12 08:45:34;;;;;;;4.70;3.27;;;;;;;32.91;37.15;97590.78;5093775;28;20216;-70
2023/08/12 08:48:00;;;;;;;8.00;3.30;;;;;;;32.90;36.27;97594.59;5091105;28;20194;-70
2023/08/12 08:50:27;;;;;;;5.53;3.23;;;;;;;32.78;36.33;97596.84;5090948;28;20201;-70
2023/08/12 08:52:55;;;;;;;4.03;3.20;;;;;;;32.93;36.81;97595.94;5087488;28;20527;-70
2023/08/12 08:55:21;;;;;;;3.63;3.03;;;;;;;33.20;36.70;97584.47;5097202;28;20447;-71
2023/08/12 08:57:47;;;;;;;3.30;3.00;;;;;;;33.32;35.97;97583.22;5096158;28;20510;-71
2023/08/12 09:00:14;;;;;;;3.97;3.33;;;;;;;33.38;34.13;97584.81;5091029;28;21118;-72
2023/08/12 09:02:40;;;;;;;3.63;2.83;;;;;;;33.42;33.88;97588.53;5086308;28;20213;-69
2023/08/12 09:05:07;;;;;;;2.87;2.67;;;;;;;33.52;33.98;97577.53;5092055;28;20455;-72
2023/08/12 09:07:32;;;;;;;3.80;2.80;;;;;;;33.77;33.41;97578.28;5090615;27;20428;-70
2023/08/12 09:09:58;;;;;;;3.87;2.90;;;;;;;33.94;32.74;97582.38;5096182;28;20480;-70
2023/08/12 09:12:24;;;;;;;3.73;2.63;;;;;;;34.13;32.20;97577.72;5095783;28;20851;-69
2023/08/12 09:14:49;;;;;;;3.50;2.30;;;;;;;34.28;31.92;97587.50;5088444;28;20209;-71
2023/08/12 09:17:15;;;;;;;4.13;2.50;;;;;;;34.44;31.27;97588.06;5089486;28;20573;-71
2023/08/12 09:19:41;;;;;;;2.70;2.10;;;;;;;34.40;31.62;97589.81;5095306;28;20193;-71
2023/08/12 09:22:10;;;;;;;5.30;2.80;;;;;;;34.44;31.77;97585.34;5094617;28;20495;-72
2023/08/12 09:24:36;;;;;;;2.93;2.60;;;;;;;34.29;31.86;97593.75;5089190;28;20209;-69
2023/08/12 09:27:01;;;;;;;2.93;2.63;;;;;;;34.29;31.10;97588.31;5097265;28;20429;-70
2023/08/12 09:29:34;;;;;;;4.67;2.60;;;;;;;34.27;31.45;97585.91;5091420;28;20280;-71
2023/08/12 09:32:09;;;;;;;6.20;2.40;;;;;;;34.29;31.78;97594.56;5083826;28;20201;-70
2023/08/12 09:34:36;;;;;;;8.60;2.67;;;;;;;34.05;32.19;97583.81;5088074;28;20457;-70
2023/08/12 09:37:01;;;;;;;3.10;2.70;;;;;;;33.99;31.92;97579.59;5089108;28;20511;-71
2023/08/12 09:39:29;;;;;;;2.77;2.20;;;;;;;34.48;31.46;97591.00;5090116;28;21189;-71
2023/08/12 09:41:54;;;;;;;3.57;2.57;;;;;;;34.74;31.36;97577.75;5085504;28;20581;-71
2023/08/12 09:44:20;;;;;;;7.20;2.93;;;;;;;34.98;31.33;97568.59;5091678;28;20444;-72
2023/08/12 09:46:46;;;;;;;2.37;2.17;;;;;;;35.13;31.26;97569.38;5074528;28;20278;-72
2023/08/12 09:49:11;;;;;;;3.10;2.40;;;;;;;34.92;30.98;97567.06;5087956;28;20197;-70
2023/08/12 09:51:37;;;;;;;5.40;2.67;;;;;;;34.79;31.33;97556.94;5096471;28;20182;-71
2023/08/12 09:54:02;;;;;;;3.17;2.50;;;;;;;34.57;31.71;97561.19;5085419;28;20684;-70
2023/08/12 09:56:30;;;;;;;4.00;3.00;;;;;;;34.14;32.48;97571.19;5089133;28;20186;-71
2023/08/12 09:58:56;;;;;;;10.00;3.00;;;;;;;33.74;33.35;97559.84;5084718;28;20217;-72
2023/08/12 10:01:22;;;;;;;3.50;3.20;;;;;;;33.65;33.39;97548.00;5093339;28;20460;-70
2023/08/12 10:03:50;;;;;;;7.83;3.50;;;;;;;33.48;33.93;97545.81;5089956;28;20439;-69
2023/08/12 10:06:15;;;;;;;5.03;3.13;;;;;;;33.40;33.98;97544.56;5086362;28;20205;-70
2023/08/12 10:08:41;;;;;;;9.13;3.00;;;;;;;33.36;34.47;97557.13;5087602;28;20428;-70
2023/08/12 10:11:08;;;;;;;3.70;2.63;;;;;;;33.35;34.95;97560.94;5086631;28;20565;-71
2023/08/12 10:13:34;;;;;;;5.43;3.03;;;;;;;33.39;34.77;97556.56;5081341;28;20193;-71
2023/08/12 10:16:00;;;;;;;5.03;2.70;;;;;;;33.27;34.64;97558.88;5093368;28;20984;-71
2023/08/12 10:18:28;;;;;;;6.80;2.80;;;;;;;33.17;35.48;97559.81;5092899;28;20411;-71
2023/08/12 10:20:55;;;;;;;11.00;2.83;;;;;;;33.06;35.23;97548.25;5087396;28;20992;-72
2023/08/12 10:23:21;;;;;;;4.53;2.80;;;;;;;33.20;35.24;97543.72;5084201;28;20786;-70
2023/08/12 10:25:47;;;;;;;4.60;2.70;;;;;;;33.32;35.13;97545.22;5084599;28;20445;-70
2023/08/12 10:28:13;;;;;;;3.30;2.73;;;;;;;33.37;35.25;97553.31;5082549;28;20412;-73
2023/08/12 10:30:40;;;;;;;5.00;3.27;;;;;;;33.62;35.07;97560.28;5091056;28;20474;-71
2023/08/12 10:33:06;;;;;;;5.87;2.80;;;;;;;33.78;35.43;97558.13;5086474;28;20535;-72
2023/08/12 10:35:45;;;;;;;7.03;3.10;;;;;;;33.95;35.15;97556.81;5089953;28;20866;-72
2023/08/12 10:38:16;;;;;;;9.43;3.03;;;;;;;33.99;34.77;97555.91;5084792;28;20427;-71
2023/08/12 10:40:42;;;;;;;3.87;3.10;;;;;;;33.95;34.70;97556.81;5082386;28;20915;-71
2023/08/12 10:43:07;;;;;;;3.40;3.10;;;;;;;33.91;35.06;97558.50;5084841;28;20463;-71
2023/08/12 10:45:45;;;;;;;3.70;3.10;;;;;;;33.72;34.91;97553.88;5088564;28;20197;-71
2023/08/12 10:48:18;;;;;;;3.40;2.93;;;;;;;33.62;35.44;97554.84;5088957;28;20253;-71
2023/08/12 10:50:45;;;;;;;3.83;3.07;;;;;;;33.92;34.65;97554.69;5089403;28;20432;-72
2023/08/12 10:53:22;;;;;;;4.20;3.00;;;;;;;33.94;34.95;97555.19;5087429;28;21027;-72
2023/08/12 10:55:48;;;;;;;3.97;2.80;;;;;;;34.22;34.10;97555.28;5084190;28;20487;-74
2023/08/12 10:58:25;;;;;;;8.73;2.67;;;;;;;34.55;34.23;97552.53;5090993;28;20444;-71
2023/08/12 11:00:54;;;;;;;4.83;2.90;;;;;;;34.67;33.71;97550.09;5086079;28;20212;-72
2023/08/12 11:03:20;;;;;;;3.30;3.00;;;;;;;34.91;33.09;97549.91;5085869;28;20431;-72
2023/08/12 11:05:46;;;;;;;4.20;2.43;;;;;;;34.97;32.51;97563.44;5087263;28;20584;-71
2023/08/12 11:08:13;;;;;;;4.07;2.30;;;;;;;34.85;31.86;97548.38;5087921;28;20742;-72
2023/08/12 11:10:38;;;;;;;5.77;2.83;;;;;;;34.78;31.57;97553.44;5085829;28;20400;-70
2023/08/12 11:13:04;;;;;;;11.23;2.50;;;;;;;34.62;31.83;97558.38;5094487;28;20423;-73
2023/08/12 11:15:33;;;;;;;5.07;2.60;;;;;;;34.97;31.28;97552.56;5093535;28;20241;-70
2023/08/12 11:18:01;;;;;;;3.70;2.47;;;;;;;35.16;31.19;97536.09;5087690;28;20212;-70
2023/08/12 11:20:28;;;;;;;4.50;2.57;;;;;;;35.43;31.13;97537.16;5088392;28;20462;-70
2023/08/12 11:22:54;;;;;;;3.43;2.50;;;;;;;35.26;31.26;97527.69;5085542;28;20462;-71
2023/08/12 11:25:20;;;;;;;4.30;2.93;;;;;;;35.58;31.49;97517.72;5085949;28;20439;-70
2023/08/12 11:27:47;;;;;;;3.10;2.80;;;;;;;35.67;30.67;97507.69;5087174;28;20193;-71